Historyczne dane pomiarowe

Dodano dane terminowe – wersja testowa.

Dane z okresu 1951-2019

Wersja bazy: 1.34 [2019-03-16, lista zmian], aktualizacja planowana na 2019-04-15

Dane meteo z obszaru Polski uzyskane na podstawie danych udostępnionych przez Instytut Meteorologii i Gospodarki Wodnej – Państwowy Instytut Badawczy.

 

Wybierz Datę:    

       

TemperaturaWilgotnośćWiatrCiśnienieOpadyŚniegCzas trwania zjawisk
 Stacja t tx tn tng RH VA  wxwx mslp ppp RRR   cm mm wxwxwxwxwxwxwx
1956-11-09 -2.6 0.0 -5.0- 83.3- 4.0 4.7---- 0.0------------
1956-11-08 -1.3 2.2 -4.2- 85.0- 1.3 2.0---- 0.0------------
1956-11-07 1.0 3.0 -0.3- 88.3- 5.7 3.3---- 0.0------------
1956-11-06 1.7 3.7 -0.2- 89.5- 3.3 6.0---- 0.0------------
1956-11-05 4.0 6.4 -2.8- 91.5- 7.3 6.0---- 0.0------------
1956-11-04 -0.4 3.9 -3.8- 88.5- 0.3 4.0---- 0.0------------
1956-11-03 -1.6 3.2 -5.2- 76.0- 1.0 1.0---- 0.0------------
1956-11-02 -0.7 3.0 -2.4- 81.0- 4.0 1.7---- 1.0-- 1---------
1956-11-01 -1.8 3.2 -9.2- 82.8- 0.3 2.0---- 0.2------------
1956-10-31 -5.8 -0.6 -7.4- 78.5- 3.0 4.0---- 0.0------------
1956-10-30 1.7 4.8 -1.0- 91.5- 8.0 3.3---- 0.0------------
1956-10-29 4.4 7.7 1.4- 87.0- 6.7 4.0---- 0.8------------
1956-10-28 7.8 10.5 5.4- 96.3- 8.0 2.7---- 12.0------------
1956-10-27 9.8 11.9 6.4- 90.8- 8.0 3.3---- 2.1------------
1956-10-26 7.4 9.4 6.2- 96.8- 8.0 2.0---- 2.6------------
1956-10-25 10.1 16.7 5.1- 86.8- 3.3 1.3---- 0.0------------
1956-10-24 11.6 16.9 2.9- 84.3- 2.7 2.0---- 0.0------------
1956-10-23 7.6 11.3 3.8- 90.8- 5.3 1.0---- 0.0------------
1956-10-22 9.6 15.1 7.0- 94.8- 2.7 0.3---- 0.0------------
1956-10-21 12.2 17.1 8.0- 89.8- 4.3 1.7---- 0.0------------
1956-10-20 8.6 13.1 4.0- 94.8- 8.0 0.0---- 0.0------------
1956-10-19 10.6 13.9 8.0- 96.0- 6.7 3.0---- 0.0------------
1956-10-18 10.9 13.1 2.8- 94.3- 8.0 2.7---- 1.4------------
1956-10-17 6.7 14.1 -1.5- 80.3- 0.0 2.3---- 0.0------------
1956-10-16 5.0 12.4 -1.6- 85.5- 0.0 0.0---- 0.0------------
1956-10-15 4.3 10.9 1.6- 89.8- 0.0 1.0---- 0.0------------
1956-10-14 7.4 12.1 3.2- 81.5- 0.0 9.3---- 0.0------------
1956-10-13 10.7 11.9 6.5- 81.8- 5.7 10.7---- 1.4------------
1956-10-12 9.2 12.5 6.5- 87.0- 5.0 4.0---- 0.0------------
1956-10-11 7.9 11.1 1.6- 78.5- 3.0 4.0---- 0.0------------
1956-10-10 3.3 10.1 -0.6- 84.8- 1.0 0.3---- 0.0------------
1956-10-09 6.5 8.7 2.4- 91.8- 8.0 2.7---- 1.4------------
1956-10-08 4.7 9.1 0.2- 85.0- 4.0 2.7---- 0.0------------
1956-10-07 5.5 8.6 3.8- 86.5- 4.3 6.0---- 0.2------------
1956-10-06 5.5 7.1 4.5- 95.5- 8.0 4.3---- 24.2------------
1956-10-05 9.0 14.4 6.4- 88.8- 4.0 3.0---- 0.6------------
1956-10-04 10.4 12.1 5.6- 95.0- 6.3 1.0---- 9.4------------
1956-10-03 14.0 19.5 10.4- 83.8- 4.0 5.3---- 0.1------------
1956-10-02 17.3 25.4 9.2- 78.8- 0.7 2.0---- 0.0------------
1956-10-01 17.2 24.9 7.5- 83.5- 1.3 2.3---- 0.0------------
1956-09-30 12.4 19.3 9.2- 87.3- 3.0 1.3---- 0.0------------
1956-09-29 16.0 20.9 13.5- 84.3- 4.3 2.7---- 0.0------------
1956-09-28 15.1 19.4 11.5- 76.8- 6.0 3.3---- 0.1------------
1956-09-27 17.0 23.7 9.8- 70.3- 3.7 3.3---- 0.0------------
1956-09-26 13.6 23.5 6.4- 74.3- 0.0 2.7---- 0.0------------
1956-09-25 12.6 22.5 2.5- 80.3- 0.0 3.3---- 0.0------------
1956-09-24 10.8 16.5 4.5- 56.5- 0.0 4.3---- 0.0------------
1956-09-23 12.9 19.4 7.6- 79.0- 0.7 5.3---- 0.0------------
1956-09-22 13.5 20.3 4.2- 76.5- 0.0 2.0---- 0.0------------
1956-09-21 11.5 20.3 2.0- 76.8- 0.0 0.3---- 0.0------------
1956-09-20 9.9 17.4 2.5- 79.0- 0.7 1.0---- 0.0------------
1956-09-19 9.0 17.3 0.6- 82.0- 1.0 1.3---- 0.0------------
1956-09-18 8.4 13.9 4.6- 88.5- 2.3 2.7---- 0.0------------
1956-09-17 8.6 10.9 7.2- 92.3- 5.7 5.3---- 0.0------------
1956-09-16 10.5 13.9 6.2- 83.3- 3.7 3.0---- 0.8------------
1956-09-15 10.0 13.7 5.0- 91.8- 4.7 1.7---- 0.0------------
1956-09-14 8.7 13.4 5.6- 89.5- 6.7 1.0---- 0.0------------
1956-09-13 9.6 13.5 7.5- 90.8- 5.3 2.7---- 5.7------------
1956-09-12 11.5 15.3 8.2- 88.3- 5.0 4.7---- 5.4------------
1956-09-11 14.3 16.4 13.1- 94.3- 6.7 1.7---- 3.6------------
220.7 ms

 

Źródłem pochodzenia danych jest Instytut Meteorologii i Gospodarki Wodnej – Państwowy Instytut Badawczy. Dane Instytutu Meteorologii i Gospodarki Wodnej – Państwowego Instytutu Badawczego zostały przetworzone.

Dane źródłowe można odnaleźć na stronie https://dane.imgw.pl